sensor_id;sensor_type;location;lat;lon;timestamp;P1;durP1;ratioP1;P2;durP2;ratioP2
35592;SDS011;64447;52.140;5.602;2024-03-02T00:00:38;2.70;;;1.75;;
35592;SDS011;64447;52.140;5.602;2024-03-02T00:03:04;1.63;;;1.30;;
35592;SDS011;64447;52.140;5.602;2024-03-02T00:05:34;3.88;;;1.58;;
35592;SDS011;64447;52.140;5.602;2024-03-02T00:08:00;4.72;;;1.70;;
35592;SDS011;64447;52.140;5.602;2024-03-02T00:10:27;2.42;;;1.75;;
35592;SDS011;64447;52.140;5.602;2024-03-02T00:13:02;3.28;;;1.88;;
35592;SDS011;64447;52.140;5.602;2024-03-02T00:18:10;2.13;;;1.48;;
35592;SDS011;64447;52.140;5.602;2024-03-02T00:20:37;2.03;;;1.60;;
35592;SDS011;64447;52.140;5.602;2024-03-02T00:23:04;3.03;;;1.70;;
35592;SDS011;64447;52.140;5.602;2024-03-02T00:25:38;1.60;;;1.40;;
35592;SDS011;64447;52.140;5.602;2024-03-02T00:28:19;2.85;;;1.60;;
35592;SDS011;64447;52.140;5.602;2024-03-02T00:30:54;2.40;;;1.60;;
35592;SDS011;64447;52.140;5.602;2024-03-02T00:33:22;1.95;;;1.60;;
35592;SDS011;64447;52.140;5.602;2024-03-02T00:35:49;3.00;;;1.60;;
35592;SDS011;64447;52.140;5.602;2024-03-02T00:38:15;3.35;;;1.60;;
35592;SDS011;64447;52.140;5.602;2024-03-02T00:40:41;5.15;;;1.88;;
35592;SDS011;64447;52.140;5.602;2024-03-02T00:46:19;2.40;;;1.52;;
35592;SDS011;64447;52.140;5.602;2024-03-02T00:48:52;2.88;;;1.67;;
35592;SDS011;64447;52.140;5.602;2024-03-02T00:51:20;1.70;;;1.58;;
35592;SDS011;64447;52.140;5.602;2024-03-02T00:53:47;3.08;;;1.67;;
35592;SDS011;64447;52.140;5.602;2024-03-02T00:56:13;2.22;;;1.52;;
35592;SDS011;64447;52.140;5.602;2024-03-02T00:58:39;2.38;;;1.60;;
35592;SDS011;64447;52.140;5.602;2024-03-02T01:01:05;3.55;;;2.17;;
35592;SDS011;64447;52.140;5.602;2024-03-02T01:03:32;2.72;;;1.67;;
35592;SDS011;64447;52.140;5.602;2024-03-02T01:05:58;2.80;;;1.70;;
35592;SDS011;64447;52.140;5.602;2024-03-02T01:08:24;3.47;;;1.80;;
35592;SDS011;64447;52.140;5.602;2024-03-02T01:10:51;4.18;;;1.90;;
35592;SDS011;64447;52.140;5.602;2024-03-02T01:13:16;2.20;;;1.70;;
35592;SDS011;64447;52.140;5.602;2024-03-02T01:15:42;1.92;;;1.45;;
35592;SDS011;64447;52.140;5.602;2024-03-02T01:18:08;1.35;;;1.20;;
35592;SDS011;64447;52.140;5.602;2024-03-02T01:20:34;2.15;;;0.93;;
35592;SDS011;64447;52.140;5.602;2024-03-02T01:23:00;1.27;;;0.93;;
35592;SDS011;64447;52.140;5.602;2024-03-02T01:25:25;0.90;;;0.90;;
35592;SDS011;64447;52.140;5.602;2024-03-02T01:27:51;1.10;;;0.80;;
35592;SDS011;64447;52.140;5.602;2024-03-02T01:30:17;0.75;;;0.63;;
35592;SDS011;64447;52.140;5.602;2024-03-02T01:32:42;0.80;;;0.80;;
35592;SDS011;64447;52.140;5.602;2024-03-02T01:35:08;1.58;;;0.70;;
35592;SDS011;64447;52.140;5.602;2024-03-02T01:37:34;1.88;;;0.90;;
35592;SDS011;64447;52.140;5.602;2024-03-02T01:40:00;1.50;;;0.80;;
35592;SDS011;64447;52.140;5.602;2024-03-02T01:42:25;0.60;;;0.60;;
35592;SDS011;64447;52.140;5.602;2024-03-02T01:44:51;0.60;;;0.60;;
35592;SDS011;64447;52.140;5.602;2024-03-02T01:47:17;1.30;;;0.80;;
35592;SDS011;64447;52.140;5.602;2024-03-02T01:49:42;0.80;;;0.65;;
35592;SDS011;64447;52.140;5.602;2024-03-02T01:52:08;0.60;;;0.60;;
35592;SDS011;64447;52.140;5.602;2024-03-02T01:54:34;0.70;;;0.70;;
35592;SDS011;64447;52.140;5.602;2024-03-02T01:56:59;1.25;;;0.63;;
35592;SDS011;64447;52.140;5.602;2024-03-02T01:59:25;0.93;;;0.63;;
35592;SDS011;64447;52.140;5.602;2024-03-02T02:01:51;1.73;;;0.80;;
35592;SDS011;64447;52.140;5.602;2024-03-02T02:04:17;0.88;;;0.77;;
35592;SDS011;64447;52.140;5.602;2024-03-02T02:06:45;0.85;;;0.80;;
35592;SDS011;64447;52.140;5.602;2024-03-02T02:09:11;0.65;;;0.65;;
35592;SDS011;64447;52.140;5.602;2024-03-02T02:11:37;0.90;;;0.90;;
35592;SDS011;64447;52.140;5.602;2024-03-02T02:14:03;1.52;;;0.98;;
35592;SDS011;64447;52.140;5.602;2024-03-02T02:16:28;0.70;;;0.70;;
35592;SDS011;64447;52.140;5.602;2024-03-02T02:18:54;0.60;;;0.60;;
35592;SDS011;64447;52.140;5.602;2024-03-02T02:21:22;1.70;;;0.68;;
35592;SDS011;64447;52.140;5.602;2024-03-02T02:23:48;0.70;;;0.70;;
35592;SDS011;64447;52.140;5.602;2024-03-02T02:26:15;1.20;;;1.10;;
35592;SDS011;64447;52.140;5.602;2024-03-02T02:28:41;1.00;;;0.85;;
35592;SDS011;64447;52.140;5.602;2024-03-02T02:31:12;0.50;;;0.50;;
35592;SDS011;64447;52.140;5.602;2024-03-02T02:33:41;0.68;;;0.68;;
35592;SDS011;64447;52.140;5.602;2024-03-02T02:36:10;0.70;;;0.70;;
35592;SDS011;64447;52.140;5.602;2024-03-02T02:38:40;0.77;;;0.68;;
35592;SDS011;64447;52.140;5.602;2024-03-02T02:41:09;0.85;;;0.70;;
35592;SDS011;64447;52.140;5.602;2024-03-02T02:43:35;0.65;;;0.65;;
35592;SDS011;64447;52.140;5.602;2024-03-02T02:46:00;1.45;;;0.77;;
35592;SDS011;64447;52.140;5.602;2024-03-02T02:48:26;1.48;;;0.90;;
35592;SDS011;64447;52.140;5.602;2024-03-02T02:50:52;0.80;;;0.70;;
35592;SDS011;64447;52.140;5.602;2024-03-02T02:53:17;2.25;;;0.82;;
35592;SDS011;64447;52.140;5.602;2024-03-02T02:55:43;1.17;;;0.77;;
35592;SDS011;64447;52.140;5.602;2024-03-02T02:58:09;0.50;;;0.50;;
35592;SDS011;64447;52.140;5.602;2024-03-02T03:00:34;0.85;;;0.70;;
35592;SDS011;64447;52.140;5.602;2024-03-02T03:03:01;0.70;;;0.70;;
35592;SDS011;64447;52.140;5.602;2024-03-02T03:05:27;0.77;;;0.65;;
35592;SDS011;64447;52.140;5.602;2024-03-02T03:07:53;0.65;;;0.65;;
35592;SDS011;64447;52.140;5.602;2024-03-02T03:10:18;0.68;;;0.68;;
35592;SDS011;64447;52.140;5.602;2024-03-02T03:12:47;0.95;;;0.70;;
35592;SDS011;64447;52.140;5.602;2024-03-02T03:15:12;0.70;;;0.70;;
35592;SDS011;64447;52.140;5.602;2024-03-02T03:17:39;2.53;;;0.90;;
35592;SDS011;64447;52.140;5.602;2024-03-02T03:20:05;1.05;;;0.82;;
35592;SDS011;64447;52.140;5.602;2024-03-02T03:22:35;0.93;;;0.93;;
35592;SDS011;64447;52.140;5.602;2024-03-02T03:25:01;0.93;;;0.85;;
35592;SDS011;64447;52.140;5.602;2024-03-02T03:27:28;0.88;;;0.80;;
35592;SDS011;64447;52.140;5.602;2024-03-02T03:29:54;0.80;;;0.80;;
35592;SDS011;64447;52.140;5.602;2024-03-02T03:32:19;1.95;;;0.70;;
35592;SDS011;64447;52.140;5.602;2024-03-02T03:34:45;0.63;;;0.60;;
35592;SDS011;64447;52.140;5.602;2024-03-02T03:37:13;0.70;;;0.70;;
35592;SDS011;64447;52.140;5.602;2024-03-02T03:39:38;2.05;;;0.60;;
35592;SDS011;64447;52.140;5.602;2024-03-02T03:42:04;0.73;;;0.73;;
35592;SDS011;64447;52.140;5.602;2024-03-02T03:44:30;1.65;;;0.85;;
35592;SDS011;64447;52.140;5.602;2024-03-02T03:46:55;0.95;;;0.77;;
35592;SDS011;64447;52.140;5.602;2024-03-02T03:49:21;1.13;;;1.00;;
35592;SDS011;64447;52.140;5.602;2024-03-02T03:51:47;0.95;;;0.90;;
35592;SDS011;64447;52.140;5.602;2024-03-02T03:54:12;1.63;;;0.80;;
35592;SDS011;64447;52.140;5.602;2024-03-02T03:56:38;1.27;;;0.98;;
35592;SDS011;64447;52.140;5.602;2024-03-02T03:59:04;0.80;;;0.80;;
35592;SDS011;64447;52.140;5.602;2024-03-02T04:01:30;0.82;;;0.80;;
35592;SDS011;64447;52.140;5.602;2024-03-02T04:03:56;0.90;;;0.90;;
35592;SDS011;64447;52.140;5.602;2024-03-02T04:06:22;0.60;;;0.60;;
35592;SDS011;64447;52.140;5.602;2024-03-02T04:08:48;1.17;;;0.68;;
35592;SDS011;64447;52.140;5.602;2024-03-02T04:11:14;1.10;;;0.70;;
35592;SDS011;64447;52.140;5.602;2024-03-02T04:13:39;1.45;;;0.80;;
35592;SDS011;64447;52.140;5.602;2024-03-02T04:16:05;0.88;;;0.80;;
35592;SDS011;64447;52.140;5.602;2024-03-02T04:18:31;1.05;;;0.82;;
35592;SDS011;64447;52.140;5.602;2024-03-02T04:21:00;0.75;;;0.75;;
35592;SDS011;64447;52.140;5.602;2024-03-02T04:23:26;0.75;;;0.70;;
35592;SDS011;64447;52.140;5.602;2024-03-02T04:25:52;1.33;;;0.90;;
35592;SDS011;64447;52.140;5.602;2024-03-02T04:28:17;1.20;;;0.70;;
35592;SDS011;64447;52.140;5.602;2024-03-02T04:30:43;1.15;;;0.70;;
35592;SDS011;64447;52.140;5.602;2024-03-02T04:33:08;1.48;;;0.90;;
35592;SDS011;64447;52.140;5.602;2024-03-02T04:35:35;0.63;;;0.55;;
35592;SDS011;64447;52.140;5.602;2024-03-02T04:38:01;0.90;;;0.77;;
35592;SDS011;64447;52.140;5.602;2024-03-02T04:40:27;2.45;;;0.90;;
35592;SDS011;64447;52.140;5.602;2024-03-02T04:42:52;1.45;;;0.88;;
35592;SDS011;64447;52.140;5.602;2024-03-02T04:45:18;0.70;;;0.55;;
35592;SDS011;64447;52.140;5.602;2024-03-02T04:47:44;0.68;;;0.68;;
35592;SDS011;64447;52.140;5.602;2024-03-02T04:50:09;0.70;;;0.70;;
35592;SDS011;64447;52.140;5.602;2024-03-02T04:52:35;1.92;;;0.73;;
35592;SDS011;64447;52.140;5.602;2024-03-02T04:55:01;0.77;;;0.77;;
35592;SDS011;64447;52.140;5.602;2024-03-02T04:57:46;0.60;;;0.60;;
35592;SDS011;64447;52.140;5.602;2024-03-02T05:00:12;1.45;;;0.88;;
35592;SDS011;64447;52.140;5.602;2024-03-02T05:02:38;1.25;;;1.02;;
35592;SDS011;64447;52.140;5.602;2024-03-02T05:05:04;2.50;;;0.82;;
35592;SDS011;64447;52.140;5.602;2024-03-02T05:07:30;0.82;;;0.80;;
35592;SDS011;64447;52.140;5.602;2024-03-02T05:09:55;0.60;;;0.60;;
35592;SDS011;64447;52.140;5.602;2024-03-02T05:12:21;1.92;;;0.88;;
35592;SDS011;64447;52.140;5.602;2024-03-02T05:15:05;2.35;;;0.65;;
35592;SDS011;64447;52.140;5.602;2024-03-02T05:17:32;1.33;;;0.60;;
35592;SDS011;64447;52.140;5.602;2024-03-02T05:19:58;1.33;;;0.60;;
35592;SDS011;64447;52.140;5.602;2024-03-02T05:22:24;0.90;;;0.70;;
35592;SDS011;64447;52.140;5.602;2024-03-02T05:24:49;1.35;;;0.90;;
35592;SDS011;64447;52.140;5.602;2024-03-02T05:27:15;1.98;;;0.82;;
35592;SDS011;64447;52.140;5.602;2024-03-02T05:29:40;2.63;;;0.70;;
35592;SDS011;64447;52.140;5.602;2024-03-02T05:32:06;0.90;;;0.80;;
35592;SDS011;64447;52.140;5.602;2024-03-02T05:34:32;3.00;;;1.02;;
35592;SDS011;64447;52.140;5.602;2024-03-02T05:37:00;2.88;;;0.98;;
35592;SDS011;64447;52.140;5.602;2024-03-02T05:39:26;1.77;;;0.95;;
35592;SDS011;64447;52.140;5.602;2024-03-02T05:41:52;1.50;;;0.85;;
35592;SDS011;64447;52.140;5.602;2024-03-02T05:44:17;1.23;;;0.93;;
35592;SDS011;64447;52.140;5.602;2024-03-02T05:46:43;1.05;;;0.88;;
35592;SDS011;64447;52.140;5.602;2024-03-02T05:49:09;0.98;;;0.88;;
35592;SDS011;64447;52.140;5.602;2024-03-02T05:51:37;1.95;;;0.90;;
35592;SDS011;64447;52.140;5.602;2024-03-02T05:54:03;1.35;;;1.02;;
35592;SDS011;64447;52.140;5.602;2024-03-02T05:56:28;0.80;;;0.80;;
35592;SDS011;64447;52.140;5.602;2024-03-02T05:58:54;2.55;;;1.17;;
35592;SDS011;64447;52.140;5.602;2024-03-02T06:01:33;1.98;;;0.70;;
35592;SDS011;64447;52.140;5.602;2024-03-02T06:03:59;1.25;;;0.95;;
35592;SDS011;64447;52.140;5.602;2024-03-02T06:06:25;1.30;;;1.00;;
35592;SDS011;64447;52.140;5.602;2024-03-02T06:08:51;0.80;;;0.80;;
35592;SDS011;64447;52.140;5.602;2024-03-02T06:11:18;0.70;;;0.70;;
35592;SDS011;64447;52.140;5.602;2024-03-02T06:13:44;1.02;;;0.82;;
35592;SDS011;64447;52.140;5.602;2024-03-02T06:16:10;2.53;;;1.45;;
35592;SDS011;64447;52.140;5.602;2024-03-02T06:18:36;3.67;;;1.30;;
35592;SDS011;64447;52.140;5.602;2024-03-02T06:21:02;1.60;;;0.90;;
35592;SDS011;64447;52.140;5.602;2024-03-02T06:23:28;2.78;;;1.10;;
35592;SDS011;64447;52.140;5.602;2024-03-02T06:25:53;0.95;;;0.85;;
35592;SDS011;64447;52.140;5.602;2024-03-02T06:28:19;1.20;;;1.10;;
35592;SDS011;64447;52.140;5.602;2024-03-02T06:30:45;1.25;;;0.88;;
35592;SDS011;64447;52.140;5.602;2024-03-02T06:33:11;0.73;;;0.70;;
35592;SDS011;64447;52.140;5.602;2024-03-02T06:35:37;1.70;;;1.00;;
35592;SDS011;64447;52.140;5.602;2024-03-02T06:38:03;2.72;;;0.90;;
35592;SDS011;64447;52.140;5.602;2024-03-02T06:40:28;1.55;;;0.77;;
35592;SDS011;64447;52.140;5.602;2024-03-02T06:42:54;1.27;;;0.90;;
35592;SDS011;64447;52.140;5.602;2024-03-02T06:45:20;2.88;;;0.90;;
35592;SDS011;64447;52.140;5.602;2024-03-02T06:47:45;1.42;;;0.93;;
35592;SDS011;64447;52.140;5.602;2024-03-02T06:50:11;1.27;;;0.90;;
35592;SDS011;64447;52.140;5.602;2024-03-02T06:52:37;2.13;;;1.05;;
35592;SDS011;64447;52.140;5.602;2024-03-02T06:55:03;0.95;;;0.90;;
35592;SDS011;64447;52.140;5.602;2024-03-02T06:57:30;2.45;;;0.90;;
35592;SDS011;64447;52.140;5.602;2024-03-02T06:59:55;2.50;;;1.13;;
35592;SDS011;64447;52.140;5.602;2024-03-02T07:02:26;4.18;;;1.17;;
35592;SDS011;64447;52.140;5.602;2024-03-02T07:04:52;1.83;;;1.17;;
35592;SDS011;64447;52.140;5.602;2024-03-02T07:07:18;2.38;;;1.00;;
35592;SDS011;64447;52.140;5.602;2024-03-02T07:09:44;2.67;;;0.82;;
35592;SDS011;64447;52.140;5.602;2024-03-02T07:12:10;2.55;;;1.10;;
35592;SDS011;64447;52.140;5.602;2024-03-02T07:14:35;3.83;;;1.13;;
35592;SDS011;64447;52.140;5.602;2024-03-02T07:17:36;2.25;;;1.30;;
35592;SDS011;64447;52.140;5.602;2024-03-02T07:20:02;3.35;;;1.45;;
35592;SDS011;64447;52.140;5.602;2024-03-02T07:22:31;2.00;;;1.00;;
35592;SDS011;64447;52.140;5.602;2024-03-02T07:24:58;1.55;;;1.10;;
35592;SDS011;64447;52.140;5.602;2024-03-02T07:27:23;2.00;;;1.10;;
35592;SDS011;64447;52.140;5.602;2024-03-02T07:29:49;1.67;;;1.05;;
35592;SDS011;64447;52.140;5.602;2024-03-02T07:32:15;1.90;;;1.27;;
35592;SDS011;64447;52.140;5.602;2024-03-02T07:34:40;2.25;;;1.10;;
35592;SDS011;64447;52.140;5.602;2024-03-02T07:37:06;1.20;;;1.00;;
35592;SDS011;64447;52.140;5.602;2024-03-02T07:39:32;4.10;;;1.30;;
35592;SDS011;64447;52.140;5.602;2024-03-02T07:41:57;1.35;;;0.90;;
35592;SDS011;64447;52.140;5.602;2024-03-02T07:44:24;2.53;;;1.20;;
35592;SDS011;64447;52.140;5.602;2024-03-02T07:46:49;2.70;;;1.23;;
35592;SDS011;64447;52.140;5.602;2024-03-02T07:49:15;1.35;;;1.23;;
35592;SDS011;64447;52.140;5.602;2024-03-02T07:51:41;3.75;;;1.60;;
35592;SDS011;64447;52.140;5.602;2024-03-02T07:54:08;3.78;;;1.50;;
35592;SDS011;64447;52.140;5.602;2024-03-02T07:56:34;7.68;;;1.77;;
35592;SDS011;64447;52.140;5.602;2024-03-02T07:59:00;2.35;;;1.38;;
35592;SDS011;64447;52.140;5.602;2024-03-02T08:01:27;2.17;;;1.00;;
35592;SDS011;64447;52.140;5.602;2024-03-02T08:04:00;2.42;;;1.20;;
35592;SDS011;64447;52.140;5.602;2024-03-02T08:06:28;4.10;;;1.25;;
35592;SDS011;64447;52.140;5.602;2024-03-02T08:08:54;1.05;;;0.93;;
35592;SDS011;64447;52.140;5.602;2024-03-02T08:11:20;1.65;;;0.80;;
35592;SDS011;64447;52.140;5.602;2024-03-02T08:13:46;2.25;;;1.10;;
35592;SDS011;64447;52.140;5.602;2024-03-02T08:16:12;1.95;;;1.00;;
35592;SDS011;64447;52.140;5.602;2024-03-02T08:18:37;1.45;;;1.20;;
35592;SDS011;64447;52.140;5.602;2024-03-02T08:21:04;4.53;;;1.17;;
35592;SDS011;64447;52.140;5.602;2024-03-02T08:23:29;2.92;;;1.10;;
35592;SDS011;64447;52.140;5.602;2024-03-02T08:25:55;3.15;;;1.20;;
35592;SDS011;64447;52.140;5.602;2024-03-02T08:28:21;2.97;;;1.00;;
35592;SDS011;64447;52.140;5.602;2024-03-02T08:30:47;1.65;;;0.98;;
35592;SDS011;64447;52.140;5.602;2024-03-02T08:33:13;1.83;;;1.30;;
35592;SDS011;64447;52.140;5.602;2024-03-02T08:35:38;1.95;;;1.30;;
35592;SDS011;64447;52.140;5.602;2024-03-02T08:38:04;2.08;;;1.40;;
35592;SDS011;64447;52.140;5.602;2024-03-02T08:40:30;2.97;;;1.40;;
35592;SDS011;64447;52.140;5.602;2024-03-02T08:42:56;2.45;;;1.38;;
35592;SDS011;64447;52.140;5.602;2024-03-02T08:45:21;2.03;;;1.40;;
35592;SDS011;64447;52.140;5.602;2024-03-02T08:47:47;3.42;;;1.90;;
35592;SDS011;64447;52.140;5.602;2024-03-02T08:50:13;3.97;;;1.40;;
35592;SDS011;64447;52.140;5.602;2024-03-02T08:52:39;3.88;;;1.80;;
35592;SDS011;64447;52.140;5.602;2024-03-02T08:55:05;3.17;;;1.58;;
35592;SDS011;64447;52.140;5.602;2024-03-02T08:57:32;4.22;;;1.17;;
35592;SDS011;64447;52.140;5.602;2024-03-02T08:59:58;2.83;;;1.27;;
35592;SDS011;64447;52.140;5.602;2024-03-02T09:02:24;3.80;;;1.88;;
35592;SDS011;64447;52.140;5.602;2024-03-02T09:04:50;3.65;;;2.00;;
35592;SDS011;64447;52.140;5.602;2024-03-02T09:07:15;1.85;;;1.23;;
35592;SDS011;64447;52.140;5.602;2024-03-02T09:09:41;1.75;;;1.23;;
35592;SDS011;64447;52.140;5.602;2024-03-02T09:12:07;2.08;;;0.93;;
35592;SDS011;64447;52.140;5.602;2024-03-02T09:14:33;3.60;;;1.67;;
35592;SDS011;64447;52.140;5.602;2024-03-02T09:16:59;2.17;;;1.08;;
35592;SDS011;64447;52.140;5.602;2024-03-02T09:19:25;3.10;;;1.40;;
35592;SDS011;64447;52.140;5.602;2024-03-02T09:21:51;2.80;;;1.23;;
35592;SDS011;64447;52.140;5.602;2024-03-02T09:24:16;4.20;;;1.10;;
35592;SDS011;64447;52.140;5.602;2024-03-02T09:26:42;1.63;;;1.08;;
35592;SDS011;64447;52.140;5.602;2024-03-02T09:29:07;2.63;;;1.00;;
35592;SDS011;64447;52.140;5.602;2024-03-02T09:31:38;2.33;;;1.20;;
35592;SDS011;64447;52.140;5.602;2024-03-02T09:34:05;2.78;;;1.10;;
35592;SDS011;64447;52.140;5.602;2024-03-02T09:36:31;1.88;;;1.15;;
35592;SDS011;64447;52.140;5.602;2024-03-02T09:38:56;1.63;;;1.10;;
35592;SDS011;64447;52.140;5.602;2024-03-02T09:41:22;3.70;;;1.30;;
35592;SDS011;64447;52.140;5.602;2024-03-02T09:43:48;4.82;;;1.48;;
35592;SDS011;64447;52.140;5.602;2024-03-02T09:46:14;6.10;;;1.63;;
35592;SDS011;64447;52.140;5.602;2024-03-02T09:48:40;2.28;;;1.08;;
35592;SDS011;64447;52.140;5.602;2024-03-02T09:51:06;2.80;;;1.45;;
35592;SDS011;64447;52.140;5.602;2024-03-02T09:53:33;3.95;;;1.35;;
35592;SDS011;64447;52.140;5.602;2024-03-02T09:55:59;5.65;;;1.48;;
35592;SDS011;64447;52.140;5.602;2024-03-02T09:58:25;3.10;;;1.20;;
35592;SDS011;64447;52.140;5.602;2024-03-02T10:00:51;3.38;;;1.13;;
35592;SDS011;64447;52.140;5.602;2024-03-02T10:03:18;2.38;;;1.27;;
35592;SDS011;64447;52.140;5.602;2024-03-02T10:05:44;2.42;;;1.10;;
35592;SDS011;64447;52.140;5.602;2024-03-02T10:08:10;3.42;;;1.08;;
35592;SDS011;64447;52.140;5.602;2024-03-02T10:10:39;1.88;;;0.98;;
35592;SDS011;64447;52.140;5.602;2024-03-02T10:13:07;2.30;;;1.15;;
35592;SDS011;64447;52.140;5.602;2024-03-02T10:15:33;4.75;;;1.38;;
35592;SDS011;64447;52.140;5.602;2024-03-02T10:18:00;2.65;;;1.00;;
35592;SDS011;64447;52.140;5.602;2024-03-02T10:20:26;3.78;;;1.63;;
35592;SDS011;64447;52.140;5.602;2024-03-02T10:22:54;6.70;;;1.23;;
35592;SDS011;64447;52.140;5.602;2024-03-02T10:25:30;2.53;;;0.98;;
35592;SDS011;64447;52.140;5.602;2024-03-02T10:27:59;2.40;;;1.20;;
35592;SDS011;64447;52.140;5.602;2024-03-02T10:30:28;3.20;;;1.90;;
35592;SDS011;64447;52.140;5.602;2024-03-02T10:32:54;2.95;;;1.00;;
35592;SDS011;64447;52.140;5.602;2024-03-02T10:35:21;1.95;;;1.30;;
35592;SDS011;64447;52.140;5.602;2024-03-02T10:37:48;2.47;;;1.10;;
35592;SDS011;64447;52.140;5.602;2024-03-02T10:40:14;4.68;;;1.08;;
35592;SDS011;64447;52.140;5.602;2024-03-02T10:42:41;8.13;;;1.45;;
35592;SDS011;64447;52.140;5.602;2024-03-02T10:45:08;2.50;;;0.90;;
35592;SDS011;64447;52.140;5.602;2024-03-02T10:47:38;2.35;;;1.13;;
35592;SDS011;64447;52.140;5.602;2024-03-02T10:50:06;4.60;;;1.30;;
35592;SDS011;64447;52.140;5.602;2024-03-02T10:52:36;4.43;;;1.17;;
35592;SDS011;64447;52.140;5.602;2024-03-02T10:55:03;5.47;;;1.65;;
35592;SDS011;64447;52.140;5.602;2024-03-02T11:00:30;5.45;;;1.20;;
35592;SDS011;64447;52.140;5.602;2024-03-02T11:03:05;3.03;;;1.30;;
35592;SDS011;64447;52.140;5.602;2024-03-02T11:05:36;6.57;;;1.20;;
35592;SDS011;64447;52.140;5.602;2024-03-02T11:08:07;3.67;;;1.50;;
35592;SDS011;64447;52.140;5.602;2024-03-02T11:10:34;3.90;;;1.30;;
35592;SDS011;64447;52.140;5.602;2024-03-02T11:13:09;3.83;;;1.70;;
35592;SDS011;64447;52.140;5.602;2024-03-02T11:15:36;5.88;;;1.60;;
35592;SDS011;64447;52.140;5.602;2024-03-02T11:18:03;3.63;;;1.05;;
35592;SDS011;64447;52.140;5.602;2024-03-02T11:20:33;2.75;;;1.10;;
35592;SDS011;64447;52.140;5.602;2024-03-02T11:23:04;2.28;;;0.90;;
35592;SDS011;64447;52.140;5.602;2024-03-02T11:25:34;2.10;;;1.05;;
35592;SDS011;64447;52.140;5.602;2024-03-02T11:28:04;1.25;;;1.00;;
35592;SDS011;64447;52.140;5.602;2024-03-02T11:32:57;2.10;;;1.27;;
35592;SDS011;64447;52.140;5.602;2024-03-02T11:35:33;3.05;;;1.15;;
35592;SDS011;64447;52.140;5.602;2024-03-02T11:37:59;1.77;;;1.30;;
35592;SDS011;64447;52.140;5.602;2024-03-02T11:40:28;1.58;;;1.10;;
35592;SDS011;64447;52.140;5.602;2024-03-02T11:42:54;3.47;;;1.20;;
35592;SDS011;64447;52.140;5.602;2024-03-02T11:45:26;4.75;;;1.15;;
35592;SDS011;64447;52.140;5.602;2024-03-02T11:47:54;4.22;;;2.00;;
35592;SDS011;64447;52.140;5.602;2024-03-02T11:50:30;3.47;;;1.35;;
35592;SDS011;64447;52.140;5.602;2024-03-02T11:53:00;4.28;;;1.33;;
35592;SDS011;64447;52.140;5.602;2024-03-02T11:55:26;1.73;;;1.27;;
35592;SDS011;64447;52.140;5.602;2024-03-02T11:57:52;3.20;;;1.10;;
35592;SDS011;64447;52.140;5.602;2024-03-02T12:00:21;2.75;;;1.13;;
35592;SDS011;64447;52.140;5.602;2024-03-02T12:02:47;2.00;;;0.90;;
35592;SDS011;64447;52.140;5.602;2024-03-02T12:05:26;2.58;;;1.08;;
35592;SDS011;64447;52.140;5.602;2024-03-02T12:07:58;2.75;;;0.95;;
35592;SDS011;64447;52.140;5.602;2024-03-02T12:10:25;2.35;;;1.20;;
35592;SDS011;64447;52.140;5.602;2024-03-02T12:12:55;2.28;;;1.10;;
35592;SDS011;64447;52.140;5.602;2024-03-02T12:15:39;3.45;;;1.10;;
35592;SDS011;64447;52.140;5.602;2024-03-02T12:18:05;1.60;;;1.00;;
35592;SDS011;64447;52.140;5.602;2024-03-02T12:20:32;2.10;;;1.25;;
35592;SDS011;64447;52.140;5.602;2024-03-02T12:22:58;2.28;;;1.00;;
35592;SDS011;64447;52.140;5.602;2024-03-02T12:25:25;1.70;;;1.08;;
35592;SDS011;64447;52.140;5.602;2024-03-02T12:27:53;3.58;;;1.15;;
35592;SDS011;64447;52.140;5.602;2024-03-02T12:30:20;2.08;;;0.90;;
35592;SDS011;64447;52.140;5.602;2024-03-02T12:32:47;3.00;;;1.40;;
35592;SDS011;64447;52.140;5.602;2024-03-02T12:35:13;2.45;;;1.10;;
35592;SDS011;64447;52.140;5.602;2024-03-02T12:37:45;2.80;;;1.00;;
35592;SDS011;64447;52.140;5.602;2024-03-02T12:40:15;2.50;;;1.30;;
35592;SDS011;64447;52.140;5.602;2024-03-02T12:42:45;3.58;;;1.70;;
35592;SDS011;64447;52.140;5.602;2024-03-02T12:45:12;3.00;;;1.00;;
35592;SDS011;64447;52.140;5.602;2024-03-02T12:47:39;4.15;;;1.50;;
35592;SDS011;64447;52.140;5.602;2024-03-02T12:50:06;2.65;;;0.93;;
35592;SDS011;64447;52.140;5.602;2024-03-02T12:52:32;5.10;;;1.20;;
35592;SDS011;64447;52.140;5.602;2024-03-02T12:55:02;2.17;;;1.10;;
35592;SDS011;64447;52.140;5.602;2024-03-02T12:57:32;1.80;;;0.82;;
35592;SDS011;64447;52.140;5.602;2024-03-02T12:59:59;4.90;;;1.25;;
35592;SDS011;64447;52.140;5.602;2024-03-02T13:02:27;2.25;;;1.38;;
35592;SDS011;64447;52.140;5.602;2024-03-02T13:04:54;3.22;;;1.15;;
35592;SDS011;64447;52.140;5.602;2024-03-02T13:07:20;1.90;;;1.05;;
35592;SDS011;64447;52.140;5.602;2024-03-02T13:09:48;3.15;;;1.30;;
35592;SDS011;64447;52.140;5.602;2024-03-02T13:12:17;2.53;;;1.30;;
35592;SDS011;64447;52.140;5.602;2024-03-02T13:14:44;2.58;;;1.38;;
35592;SDS011;64447;52.140;5.602;2024-03-02T13:17:13;1.83;;;1.20;;
35592;SDS011;64447;52.140;5.602;2024-03-02T13:19:43;1.65;;;0.95;;
35592;SDS011;64447;52.140;5.602;2024-03-02T13:22:35;1.73;;;1.17;;
35592;SDS011;64447;52.140;5.602;2024-03-02T13:25:01;2.85;;;1.30;;
35592;SDS011;64447;52.140;5.602;2024-03-02T13:27:30;3.05;;;1.20;;
35592;SDS011;64447;52.140;5.602;2024-03-02T13:29:57;3.95;;;1.20;;
35592;SDS011;64447;52.140;5.602;2024-03-02T13:32:23;6.93;;;1.35;;
35592;SDS011;64447;52.140;5.602;2024-03-02T13:34:50;4.90;;;1.33;;
35592;SDS011;64447;52.140;5.602;2024-03-02T13:37:16;3.17;;;1.33;;
35592;SDS011;64447;52.140;5.602;2024-03-02T13:39:42;3.83;;;1.63;;
35592;SDS011;64447;52.140;5.602;2024-03-02T13:42:08;3.65;;;1.23;;
35592;SDS011;64447;52.140;5.602;2024-03-02T13:44:35;2.20;;;1.35;;
35592;SDS011;64447;52.140;5.602;2024-03-02T13:47:01;4.45;;;1.77;;
35592;SDS011;64447;52.140;5.602;2024-03-02T13:49:27;3.13;;;1.40;;
35592;SDS011;64447;52.140;5.602;2024-03-02T13:52:00;1.80;;;1.20;;
35592;SDS011;64447;52.140;5.602;2024-03-02T13:54:29;3.42;;;1.40;;
35592;SDS011;64447;52.140;5.602;2024-03-02T13:56:55;1.98;;;1.38;;
35592;SDS011;64447;52.140;5.602;2024-03-02T13:59:23;2.80;;;1.25;;
35592;SDS011;64447;52.140;5.602;2024-03-02T14:01:50;5.18;;;1.55;;
35592;SDS011;64447;52.140;5.602;2024-03-02T14:04:15;2.97;;;1.23;;
35592;SDS011;64447;52.140;5.602;2024-03-02T14:06:42;3.45;;;1.58;;
35592;SDS011;64447;52.140;5.602;2024-03-02T14:09:08;3.90;;;1.33;;
35592;SDS011;64447;52.140;5.602;2024-03-02T14:11:34;2.92;;;1.50;;
35592;SDS011;64447;52.140;5.602;2024-03-02T14:14:00;1.90;;;1.33;;
35592;SDS011;64447;52.140;5.602;2024-03-02T14:16:27;3.25;;;1.38;;
35592;SDS011;64447;52.140;5.602;2024-03-02T14:18:53;3.42;;;1.20;;
35592;SDS011;64447;52.140;5.602;2024-03-02T14:21:18;1.60;;;1.30;;
35592;SDS011;64447;52.140;5.602;2024-03-02T14:23:44;2.45;;;1.55;;
35592;SDS011;64447;52.140;5.602;2024-03-02T14:26:10;3.97;;;1.60;;
35592;SDS011;64447;52.140;5.602;2024-03-02T14:28:35;1.92;;;1.50;;
35592;SDS011;64447;52.140;5.602;2024-03-02T14:31:01;1.70;;;1.33;;
35592;SDS011;64447;52.140;5.602;2024-03-02T14:33:27;1.85;;;1.33;;
35592;SDS011;64447;52.140;5.602;2024-03-02T14:35:53;3.80;;;1.52;;
35592;SDS011;64447;52.140;5.602;2024-03-02T14:38:19;2.67;;;1.52;;
35592;SDS011;64447;52.140;5.602;2024-03-02T14:40:45;4.22;;;1.58;;
35592;SDS011;64447;52.140;5.602;2024-03-02T14:43:10;1.45;;;1.10;;
35592;SDS011;64447;52.140;5.602;2024-03-02T14:45:36;2.55;;;1.52;;
35592;SDS011;64447;52.140;5.602;2024-03-02T14:48:02;5.32;;;1.42;;
35592;SDS011;64447;52.140;5.602;2024-03-02T14:50:28;4.63;;;1.60;;
35592;SDS011;64447;52.140;5.602;2024-03-02T14:52:54;4.13;;;1.65;;
35592;SDS011;64447;52.140;5.602;2024-03-02T14:55:22;4.75;;;1.40;;
35592;SDS011;64447;52.140;5.602;2024-03-02T14:57:48;2.38;;;1.35;;